Norwich, United Kingdom
Current Conditions -  °F | °C
As of 11:50 PM on Saturday 22 Nov 2014 (Local Time) from EGSH Reporting Station
Haze Haze  
Wind Chill: 54°   Ceiling: 200
Heat Index: 54°   Visibility: 1.1mi
Dew Point: 54°   Wind: 3mph
Humidity: 100%   Direction: NA
Pressure: 29.97"   Gusts: NA
Location:  52.63°N, 1.3°E
Report Text: EGSH 222350Z AUTO VRB03KT 1800 BR OVC002/// 12/12 Q1015
Loading
Personal Weather Stations






























Interactive Weather Map New forecast layout! Learn more

10-Day Weather Forecast

Advertisements
Track Severe Weather on mobile